Yellowstone Regional Airport Cody US
ICAO: KCOD
IATA: COD
Category: Medium
Scheduled Services: No

Elevation: 5102 ft
TransAlt. 18000 ft.

Airport Communications:
AWOS 3:135.075
SALT LAKE CITY CNTR:133.25
CASPER RDO:122.3
CTAF/UNICOM:122.8

KCOD Zoom In..

Runways:

(A) RW 04 length 8268 ft width 100 ft
---- / hdg 38

(B) RW 22 length 8268 ft width 100 ft
---- / hdg 218

Location; KCOD
Day. 10 / Time. 10.56 Zulu
* Altimeter: 29.91
* Temperature: 01° c. 33.8°f.
* Wind from: 000° Speed 00 kn.
Dewpoint: -03° c.
Visibility: 10 Statute Miles.
Clouds: Clear (automated report).

KCOD 101056Z AUTO 00000KT 10SM CLR 01/M03 A2991 RMK AO2 SLP127 T00111033 FZRANO


Wind - Calm.

 
 
jpsmedia worldairports.se 2020   terms of use